METAR - Ísland

Uppfært síðast 13.11.2019 - kl. 12:55

SIGMET síðustu 6 klst.

Engin SIGMET skeyti bárust síðustu 6 klst.

METAR síðustu 3 klst

Flugv.TímiSkeyti
BIAR2019-11-13 12.00METAR BIAR 131200Z 16004KT 9999 BKN031 M03/M05 Q1010 RMK WIND VADLAHEIDI 04108KT
BIAR2019-11-13 11.00METAR BIAR 131100Z 18003KT 9999 BKN031 M04/M06 Q1010 R01/390095 RMK WIND VADLAHEIDI 04108KT
BIAR2019-11-13 10.00METAR BIAR 131000Z VRB02KT 9999 FEW026 BKN037 M05/M06 Q1009 R01/390095 RMK WIND VADLAHEIDI 04408KT
BIBD2019-11-13 12.00METAR BIBD 131200Z 21003KT CAVOK 01/M04 Q1009
BIBD2019-11-13 11.00METAR BIBD 131100Z 27004KT CAVOK 01/M04 Q1009 RMK BA 61 62 62
BIBD2019-11-13 10.00METAR BIBD 131000Z VRB04KT CAVOK 02/M03 Q1008 R04/39//95 RMK BA 61 62 62
BIEG2019-11-13 11.26SPECI BIEG 131126Z 14004KT 0700 -SHSN FZFG BKN002 BKN006 OVC009 M02/M03 Q1007 R04/790195 RMK SAND ON RWY. WIND GAGNHEIDI 012KT
BIEG2019-11-13 11.00METAR BIEG 131100Z 13004KT 5000 BR BKN002 OVC007 M03/M03 Q1007 R04/790195 RMK SAND ON RWY. WIND GAGNHEIDI 05015KT
BIEG2019-11-13 10.00METAR BIEG 131000Z 13005KT 5000 BR BKN002 BKN035 M03/M03 Q1007 R04/790195 RMK SAND ON RWY. WIND GAGNHEIDI 05018KT
BIGR2019-11-13 12.00METAR BIGR 131200Z 08009KT 9999 SCT018 02/M01 Q1010 R35/190095
BIGR2019-11-13 11.00METAR BIGR 131100Z 06008KT 9999 3000N BR SCT025 02/M02 Q1010
BIGR2019-11-13 10.00METAR BIGR 131000Z 05007KT 9999 FEW023 SCT037 03/M02 Q1009
BIHN2019-11-13 12.13METAR BIHN 131213Z VRB04KT CAVOK 02/M06 Q1006
BIHN2019-11-13 11.00METAR BIHN 131100Z VRB04KT CAVOK 02/M06 Q1006
BIHN2019-11-13 10.00METAR BIHN 131000Z VRB02KT 9999 FEW045 02/M06 Q1005
BIHU2019-11-13 12.00METAR BIHU 131200Z 20003KT 9999 FEW030 SCT045 M03/M05 Q1010
BIHU2019-11-13 11.00METAR BIHU 131100Z VRB01KT 9999 FEW030 SCT045 M04/M05 Q1009
BIIS2019-11-13 12.00METAR BIIS 131200Z 21005KT CAVOK 00/M05 Q1010
BIIS2019-11-13 11.00METAR BIIS 131100Z 16005KT CAVOK 01/M05 Q1009
BIIS2019-11-13 10.00METAR BIIS 131000Z 00000KT CAVOK 01/M05 Q1008 R08/390193
BIKF2019-11-13 12.30METAR BIKF 131230Z 10003KT 9999 FEW025 02/M06 Q1008
BIKF2019-11-13 12.00METAR BIKF 131200Z 07004KT 9999 FEW025 01/M05 Q1008
BIKF2019-11-13 11.30METAR BIKF 131130Z 07005KT 9999 FEW025 SCT280 00/M05 Q1007
BIKF2019-11-13 11.00METAR BIKF 131100Z 08004KT 9999 FEW025 SCT280 01/M05 Q1007
BIKF2019-11-13 10.30METAR BIKF 131030Z 08005KT 9999 FEW025 SCT280 00/M04 Q1006
BIKF2019-11-13 10.00METAR BIKF 131000Z 08008KT 9999 FEW025 SCT280 00/M04 Q1006
BIRK2019-11-13 12.00METAR BIRK 131200Z VRB02KT CAVOK 01/M07 Q1008 R13/790067
BIRK2019-11-13 11.00METAR BIRK 131100Z 10008KT CAVOK 02/M09 Q1007 R13/790067
BIRK2019-11-13 10.00METAR BIRK 131000Z 09011KT CAVOK 01/M09 Q1006 R13/790067
BITN2019-11-13 12.00METAR BITN 131200Z 18005KT 9999 VCSH FEW012 SCT020 M03/M04 Q1009 R01/492040
BITN2019-11-13 11.00METAR BITN 131100Z 19004KT 9999 4000SW VCSH FEW004 SCT020 M02/M02 Q1009 R01/492040
BITN2019-11-13 10.00METAR BITN 131000Z 19005KT 9999 VCSH SCT015 SCT030 M04/M04 Q1008 R01/492040
BIVM2019-11-13 10.12METAR BIVM 131012Z 09006KT 050V120 CAVOK 03/M04 Q1005
BIVO2019-11-13 12.00METAR BIVO 131200Z 14005KT 6000 -SHSN SCT004 BKN025 M00/M02 Q1008 R23/4910//
BIVO2019-11-13 11.00METAR BIVO 131100Z 22005KT 6000 -SN SCT004 BKN025 M01/M02 Q1008 R23/490540
BIVO2019-11-13 10.00METAR BIVO 131000Z 22005KT 3000 SN VV004 M04/M04 Q1007 R23/491040 RMK SKYGNI 7 KM SW

Textaspár eru skrifaðar af vakthafandi veðurfræðingi á Veðurstofu Íslands.




Aðrir tengdir vefir



Þetta vefsvæði byggir á Eplica